18V weather

Platte Valley Airpark
Hudson, Colorado, United States

Public forecast

Using degrees Fahrenheit for public forecast. Weather courtesy of forecast.io.

Closest aviation weather report (METAR) to Platte Valley Airpark

Closest report is Denver International Airport, 14.4 nm (26.6 km) S. Retrieved 2019/10/23 03:53 UTC (1 hour ago):

KDEN 230353Z 29018G32KT 10SM FEW130 FEW200 13/M03 A2996 RMK AO2 PK WND 28033/0334 SLP105 T01331033

Closest aviation forecast (TAF) to Platte Valley Airpark

Closest forecast is Denver International Airport, 14.4 nm (26.6 km) S. Retrieved 2019-10-23 00:39 UTC (4 hours ago):

TAF KDEN 222336Z 2300/2406 29010G22KT P6SM FEW100 BKN140 BKN200 FM230100 26010KT P6SM SCT140 SCT200 FM230300 22008KT P6SM FEW200 FM231000 30008KT P6SM SCT100 BKN200 FM231500 33011KT P6SM SCT080 BKN200 FM232100 03015G25KT P6SM -SHRA BKN040 BKN080 FM240200 03008G18KT 4SM -SHSN BR BKN015 OVC030 TEMPO 2402/2406 1/2SM -SHSN FG OVC006